Terminal Aerodrome Forecast
Issued by NWS Missoula, MT

Home | Current Version | Previous Version | Text Only | Print | Product List | Glossary On
Versions: 1 2 3 4 5 6 7 8 9 10 11 12 13 14 15
959
FTUS45 KMSO 300527
TAFMSO
TAF
KMSO 300527Z 3006/3106 12008KT P6SM VCSH BKN050 BKN060
     FM300900 VRB03KT P6SM -SHRA OVC050
     FM301200 31005KT 5SM -RA BR SCT015 OVC030=

USA.gov is the U.S. government's official web portal to all federal, state and local government web resources and services.